Time;durP1;ratioP1;P1;durP2;ratioP2;P2;SDS_P1;SDS_P2;PMS_P1;PMS_P2;Temp;Humidity;BMP_temperature;BMP_pressure;BME280_temperature;BME280_humidity;BME280_pressure;Samples;Min_cycle;Max_cycle;Signal;HPM_P1;HPM_P2
2022/06/13 00:01:49;;;;;;;;;;;;;;;-146.27;100.00;64033.13;5092972;28;19935;-38
2022/06/13 00:04:14;;;;;;;;;;;;;;;-146.27;100.00;64033.13;5092397;28;19920;-38
2022/06/13 00:06:39;;;;;;;;;;;;;;;-146.27;100.00;64033.13;5092005;28;19919;-39
2022/06/13 00:09:05;;;;;;;;;;;;;;;-146.27;100.00;64033.13;5091294;28;20073;-38
2022/06/13 00:11:31;;;;;;;;;;;;;;;-146.27;100.00;64033.13;5092422;28;20023;-38
2022/06/13 00:13:57;;;;;;;;;;;;;;;-146.27;100.00;64033.13;5093094;28;20016;-38
2022/06/13 00:16:22;;;;;;;;;;;;;;;-146.27;100.00;64033.13;5093060;28;19922;-38
2022/06/13 00:18:48;;;;;;;;;;;;;;;-146.27;100.00;64033.13;5093029;28;19912;-38
2022/06/13 00:21:18;;;;;;;;;;;;;;;-146.27;100.00;64033.13;5101367;28;20388;-39
2022/06/13 00:23:43;;;;;;;;;;;;;;;-146.27;100.00;64033.13;5112858;28;19912;-39
2022/06/13 00:26:08;;;;;;;;;;;;;;;-146.27;100.00;64033.13;5112928;28;19969;-39
2022/06/13 00:28:34;;;;;;;;;;;;;;;-146.27;100.00;64033.13;5112984;28;19918;-38
2022/06/13 00:30:59;;;;;;;;;;;;;;;-146.27;100.00;64033.13;5112851;28;20430;-37
2022/06/13 00:33:25;;;;;;;;;;;;;;;-146.27;100.00;64033.13;5112777;28;19923;-38
2022/06/13 00:35:51;;;;;;;;;;;;;;;-146.27;100.00;64033.13;5112483;28;19916;-38
2022/06/13 00:38:16;;;;;;;;;;;;;;;-146.27;100.00;64033.13;5112970;28;19951;-38
2022/06/13 00:40:41;;;;;;;;;;;;;;;-146.27;100.00;64033.13;5112869;28;19959;-38
2022/06/13 00:43:08;;;;;;;;;;;;;;;-146.27;100.00;64033.13;5112196;28;20533;-38
2022/06/13 00:45:34;;;;;;;;;;;;;;;-146.27;100.00;64033.13;5112572;28;19911;-38
2022/06/13 00:48:00;;;;;;;;;;;;;;;-146.27;100.00;64033.13;5112511;28;19968;-38
2022/06/13 00:50:25;;;;;;;;;;;;;;;-146.27;100.00;64033.13;5112357;28;19916;-38
2022/06/13 00:52:53;;;;;;;;;;;;;;;-146.27;100.00;64033.13;5111864;28;20284;-38
2022/06/13 00:55:22;;;;;;;;;;;;;;;-146.27;100.00;64033.13;5111981;28;19915;-38
2022/06/13 00:57:48;;;;;;;;;;;;;;;-146.27;100.00;64033.13;5112072;28;20020;-39
2022/06/13 01:00:15;;;;;;;;;;;;;;;-146.27;100.00;64033.13;5112211;28;19970;-36
2022/06/13 01:02:42;;;;;;;;;;;;;;;-146.27;100.00;64033.13;5112036;28;19916;-36
2022/06/13 01:05:08;;;;;;;;;;;;;;;-146.27;100.00;64033.13;5109534;27;19918;-39
2022/06/13 01:07:34;;;;;;;;;;;;;;;-146.27;100.00;64033.13;5090017;28;20285;-38
2022/06/13 01:12:44;;;;;;;;;;;;;;;-146.27;100.00;64033.13;5091953;28;19919;-38
2022/06/13 01:15:32;;;;;;;;;;;;;;;-146.27;100.00;64033.13;5092007;28;19912;-38
2022/06/13 01:17:57;;;;;;;;;;;;;;;-146.27;100.00;64033.13;5085973;28;19923;-38
2022/06/13 01:20:23;;;;;;;;;;;;;;;-146.27;100.00;64033.13;5092278;28;19912;-39
2022/06/13 01:22:48;;;;;;;;;;;;;;;-146.27;100.00;64033.13;5091879;28;20316;-39
2022/06/13 01:25:32;;;;;;;;;;;;;;;-146.27;100.00;64033.13;5091991;28;19912;-39
2022/06/13 01:28:00;;;;;;;;;;;;;;;-146.27;100.00;64033.13;5091619;28;19915;-39
2022/06/13 01:30:37;;;;;;;;;;;;;;;-146.27;100.00;64033.13;5091788;28;19999;-39
2022/06/13 01:33:21;;;;;;;;;;;;;;;-146.27;100.00;64033.13;5091917;28;19963;-39
2022/06/13 01:36:04;;;;;;;;;;;;;;;-146.27;100.00;64033.13;5091908;28;19943;-39
2022/06/13 01:38:46;;;;;;;;;;;;;;;-146.27;100.00;64033.13;5091900;28;20361;-39
2022/06/13 01:41:15;;;;;;;;;;;;;;;-146.27;100.00;64033.13;5092000;28;19919;-39
2022/06/13 01:43:49;;;;;;;;;;;;;;;-146.27;100.00;64033.13;5091558;28;20014;-39
2022/06/13 01:46:20;;;;;;;;;;;;;;;-146.27;100.00;64033.13;5091632;28;19931;-39
2022/06/13 01:49:05;;;;;;;;;;;;;;;-146.27;100.00;64033.13;5091233;28;19923;-39
2022/06/13 01:51:41;;;;;;;;;;;;;;;-146.27;100.00;64033.13;5091523;28;19912;-39
2022/06/13 01:54:12;;;;;;;;;;;;;;;-146.27;100.00;64033.13;5091176;28;20014;-39
2022/06/13 01:56:46;;;;;;;;;;;;;;;-146.27;100.00;64033.13;5091225;28;19920;-37
2022/06/13 01:59:27;;;;;;;;;;;;;;;-146.27;100.00;64033.13;5091513;28;19985;-37
2022/06/13 02:01:55;;;;;;;;;;;;;;;-146.27;100.00;64033.13;5091265;28;19981;-38
2022/06/13 02:04:39;;;;;;;;;;;;;;;-146.27;100.00;64033.13;5091280;28;19934;-38
2022/06/13 02:07:10;;;;;;;;;;;;;;;-146.27;100.00;64033.13;5091193;28;20452;-39
2022/06/13 02:09:40;;;;;;;;;;;;;;;-146.27;100.00;64033.13;5091066;28;20005;-38
2022/06/13 02:12:06;;;;;;;;;;;;;;;-146.27;100.00;64033.13;5090935;28;19911;-38
2022/06/13 02:14:34;;;;;;;;;;;;;;;-146.27;100.00;64033.13;5091588;28;20349;-39
2022/06/13 02:17:19;;;;;;;;;;;;;;;-146.27;100.00;64033.13;5091131;28;19917;-38
2022/06/13 02:19:44;;;;;;;;;;;;;;;-146.27;100.00;64033.13;5091299;28;19912;-38
2022/06/13 02:22:23;;;;;;;;;;;;;;;-146.27;100.00;64033.13;5090620;28;19912;-38
2022/06/13 02:24:56;;;;;;;;;;;;;;;-146.27;100.00;64033.13;5091046;28;19912;-38
2022/06/13 02:27:24;;;;;;;;;;;;;;;-146.27;100.00;64033.13;5091100;28;20352;-38
2022/06/13 02:29:54;;;;;;;;;;;;;;;-146.27;100.00;64033.13;5091078;28;20353;-38
2022/06/13 02:32:27;;;;;;;;;;;;;;;-146.27;100.00;64033.13;5090622;28;20263;-38
2022/06/13 02:34:55;;;;;;;;;;;;;;;-146.27;100.00;64033.13;5091345;28;19920;-39
2022/06/13 02:37:27;;;;;;;;;;;;;;;-146.27;100.00;64033.13;5090779;28;19916;-39
2022/06/13 02:39:58;;;;;;;;;;;;;;;-146.27;100.00;64033.13;5090699;28;20356;-39
2022/06/13 02:42:26;;;;;;;;;;;;;;;-146.27;100.00;64033.13;5090638;28;20311;-39
2022/06/13 02:45:12;;;;;;;;;;;;;;;-146.27;100.00;64033.13;5090559;28;19939;-38
2022/06/13 02:47:40;;;;;;;;;;;;;;;-146.27;100.00;64033.13;5090300;28;19919;-39
2022/06/13 02:50:10;;;;;;;;;;;;;;;-146.27;100.00;64033.13;5090641;28;19916;-39
2022/06/13 02:52:42;;;;;;;;;;;;;;;-146.27;100.00;64033.13;5090889;28;19923;-39
2022/06/13 02:55:10;;;;;;;;;;;;;;;-146.27;100.00;64033.13;5090394;28;20372;-39
2022/06/13 02:57:35;;;;;;;;;;;;;;;-146.27;100.00;64033.13;5090463;28;19920;-39
2022/06/13 03:00:19;;;;;;;;;;;;;;;-146.27;100.00;64033.13;5090381;28;19939;-39
2022/06/13 03:02:44;;;;;;;;;;;;;;;-146.27;100.00;64033.13;5090241;28;19920;-38
2022/06/13 03:05:29;;;;;;;;;;;;;;;-146.27;100.00;64033.13;5090103;28;19912;-38
2022/06/13 03:08:02;;;;;;;;;;;;;;;-146.27;100.00;64033.13;5089049;28;19912;-38
2022/06/13 03:10:36;;;;;;;;;;;;;;;-146.27;100.00;64033.13;5089495;28;19919;-38
2022/06/13 03:13:09;;;;;;;;;;;;;;;-146.27;100.00;64033.13;5089748;28;19912;-38
2022/06/13 03:16:02;;;;;;;;;;;;;;;-146.27;100.00;64033.13;5089462;28;19912;-39
2022/06/13 03:18:28;;;;;;;;;;;;;;;-146.27;100.00;64033.13;5088673;28;19965;-38
2022/06/13 03:20:56;;;;;;;;;;;;;;;-146.27;100.00;64033.13;5096282;28;19912;-38
2022/06/13 03:23:35;;;;;;;;;;;;;;;-146.27;100.00;64033.13;5110923;28;19919;-38
2022/06/13 03:26:07;;;;;;;;;;;;;;;-146.27;100.00;64033.13;5110616;28;19912;-38
2022/06/13 03:28:39;;;;;;;;;;;;;;;-146.27;100.00;64033.13;5110808;28;19919;-38
2022/06/13 03:31:07;;;;;;;;;;;;;;;-146.27;100.00;64033.13;5110925;28;19911;-38
2022/06/13 03:33:42;;;;;;;;;;;;;;;-146.27;100.00;64033.13;5110562;28;20334;-38
2022/06/13 03:36:09;;;;;;;;;;;;;;;-146.27;100.00;64033.13;5110270;28;19986;-38
2022/06/13 03:38:37;;;;;;;;;;;;;;;-146.27;100.00;64033.13;5110830;28;19912;-37
2022/06/13 03:41:04;;;;;;;;;;;;;;;-146.27;100.00;64033.13;5109829;28;20375;-38
2022/06/13 03:43:41;;;;;;;;;;;;;;;-146.27;100.00;64033.13;5109549;28;20459;-38
2022/06/13 03:46:11;;;;;;;;;;;;;;;-146.27;100.00;64033.13;5110014;28;20299;-37
2022/06/13 03:48:39;;;;;;;;;;;;;;;-146.27;100.00;64033.13;5109907;28;20359;-37
2022/06/13 03:51:25;;;;;;;;;;;;;;;-146.27;100.00;64033.13;5110584;28;19934;-38
2022/06/13 03:54:04;;;;;;;;;;;;;;;-146.27;100.00;64033.13;5110211;28;19922;-38
2022/06/13 03:56:42;;;;;;;;;;;;;;;-146.27;100.00;64033.13;5110224;28;19915;-38
2022/06/13 03:59:17;;;;;;;;;;;;;;;-146.27;100.00;64033.13;5109849;28;19911;-38
2022/06/13 04:01:45;;;;;;;;;;;;;;;-146.27;100.00;64033.13;5102092;28;19912;-38
2022/06/13 04:04:24;;;;;;;;;;;;;;;-146.27;100.00;64033.13;5089219;28;20268;-39
2022/06/13 04:06:50;;;;;;;;;;;;;;;-146.27;100.00;64033.13;5089158;28;19912;-38
2022/06/13 04:09:17;;;;;;;;;;;;;;;-146.27;100.00;64033.13;5089255;28;19919;-38
2022/06/13 04:12:01;;;;;;;;;;;;;;;-146.27;100.00;64033.13;5088977;28;20091;-38
2022/06/13 04:14:29;;;;;;;;;;;;;;;-146.27;100.00;64033.13;5088770;28;19919;-38
2022/06/13 04:17:00;;;;;;;;;;;;;;;-146.27;100.00;64033.13;5089296;28;20466;-38
2022/06/13 04:19:31;;;;;;;;;;;;;;;-146.27;100.00;64033.13;5091487;28;19956;-38
2022/06/13 04:22:00;;;;;;;;;;;;;;;-146.27;100.00;64033.13;5092296;28;19912;-38
2022/06/13 04:24:31;;;;;;;;;;;;;;;-146.27;100.00;64033.13;5085617;28;19913;-38
2022/06/13 04:27:04;;;;;;;;;;;;;;;-146.27;100.00;64033.13;5074899;28;19916;-51
2022/06/13 04:29:34;;;;;;;;;;;;;;;-146.27;100.00;64033.13;5091778;28;19912;-51
2022/06/13 04:32:01;;;;;;;;;;;;;;;-146.27;100.00;64033.13;5092077;28;19919;-52
2022/06/13 04:34:32;;;;;;;;;;;;;;;-146.27;100.00;64033.13;5091080;28;19985;-51
2022/06/13 04:36:58;;;;;;;;;;;;;;;-146.27;100.00;64033.13;5089479;28;19990;-50
2022/06/13 04:39:27;;;;;;;;;;;;;;;-146.27;100.00;64033.13;5087023;28;20376;-51
2022/06/13 04:41:54;;;;;;;;;;;;;;;-146.27;100.00;64033.13;5088018;28;19912;-49
2022/06/13 04:44:22;;;;;;;;;;;;;;;-146.27;100.00;64033.13;5088867;28;20403;-49
2022/06/13 04:46:49;;;;;;;;;;;;;;;-146.27;100.00;64033.13;5088479;28;19912;-50
2022/06/13 04:49:35;;;;;;;;;;;;;;;-146.27;100.00;64033.13;5088558;28;20006;-49
2022/06/13 04:52:05;;;;;;;;;;;;;;;-146.27;100.00;64033.13;5088524;28;19926;-51
2022/06/13 04:54:34;;;;;;;;;;;;;;;-146.27;100.00;64033.13;5090861;28;19912;-51
2022/06/13 04:57:00;;;;;;;;;;;;;;;-146.27;100.00;64033.13;5091744;28;19939;-50
2022/06/13 04:59:26;;;;;;;;;;;;;;;-146.27;100.00;64033.13;5091639;28;20399;-51
2022/06/13 05:01:51;;;;;;;;;;;;;;;-146.27;100.00;64033.13;5091385;28;19920;-50
2022/06/13 05:04:18;;;;;;;;;;;;;;;-146.27;100.00;64033.13;5091141;28;19912;-50
2022/06/13 05:06:46;;;;;;;;;;;;;;;-146.27;100.00;64033.13;5090807;28;19912;-51
2022/06/13 05:09:11;;;;;;;;;;;;;;;-146.27;100.00;64033.13;5091123;28;19965;-50
2022/06/13 05:11:37;;;;;;;;;;;;;;;-146.27;100.00;64033.13;5090596;28;19919;-51
2022/06/13 05:14:13;;;;;;;;;;;;;;;-146.27;100.00;64033.13;5090708;28;19912;-50
2022/06/13 05:16:47;;;;;;;;;;;;;;;-146.27;100.00;64033.13;5090968;28;20386;-50
2022/06/13 05:19:39;;;;;;;;;;;;;;;-146.27;100.00;64033.13;5090789;28;19947;-52
2022/06/13 05:22:23;;;;;;;;;;;;;;;-146.27;100.00;64033.13;5104633;28;19972;-50
2022/06/13 05:24:48;;;;;;;;;;;;;;;-146.27;100.00;64033.13;5110951;28;19912;-51
2022/06/13 05:27:13;;;;;;;;;;;;;;;-146.27;100.00;64033.13;5111295;28;20052;-50
2022/06/13 05:29:39;;;;;;;;;;;;;;;-146.27;100.00;64033.13;5110111;28;19957;-52
2022/06/13 05:32:05;;;;;;;;;;;;;;;-146.27;100.00;64033.13;5111266;28;19927;-49
2022/06/13 05:34:33;;;;;;;;;;;;;;;-146.27;100.00;64033.13;5110934;28;19930;-52
2022/06/13 05:36:59;;;;;;;;;;;;;;;-146.27;100.00;64033.13;5111504;28;19923;-51
2022/06/13 05:39:24;;;;;;;;;;;;;;;-146.27;100.00;64033.13;5111768;28;19935;-50
2022/06/13 05:41:50;;;;;;;;;;;;;;;-146.27;100.00;64033.13;5111326;28;20022;-52
2022/06/13 05:44:15;;;;;;;;;;;;;;;-146.27;100.00;64033.13;5110864;28;19912;-50
2022/06/13 05:46:40;;;;;;;;;;;;;;;-146.27;100.00;64033.13;5111074;28;20381;-50
2022/06/13 05:49:06;;;;;;;;;;;;;;;-146.27;100.00;64033.13;5110846;28;19949;-53
2022/06/13 05:51:32;;;;;;;;;;;;;;;-146.27;100.00;64033.13;5110449;28;20013;-52
2022/06/13 05:53:57;;;;;;;;;;;;;;;-146.27;100.00;64033.13;5111129;28;20385;-53
2022/06/13 05:56:24;;;;;;;;;;;;;;;-146.27;100.00;64033.13;5110451;28;20229;-49
2022/06/13 05:58:50;;;;;;;;;;;;;;;-146.27;100.00;64033.13;5110697;28;19919;-51
2022/06/13 06:01:15;;;;;;;;;;;;;;;-146.27;100.00;64033.13;5111203;28;19908;-53
2022/06/13 06:03:41;;;;;;;;;;;;;;;-146.27;100.00;64033.13;5110672;28;19912;-52
2022/06/13 06:06:07;;;;;;;;;;;;;;;-146.27;100.00;64033.13;5099742;28;19943;-52
2022/06/13 06:08:37;;;;;;;;;;;;;;;-146.27;100.00;64033.13;5090185;28;19912;-52
2022/06/13 06:11:03;;;;;;;;;;;;;;;-146.27;100.00;64033.13;5090161;28;19912;-53
2022/06/13 06:13:29;;;;;;;;;;;;;;;-146.27;100.00;64033.13;5089987;28;19919;-50
2022/06/13 06:15:56;;;;;;;;;;;;;;;-146.27;100.00;64033.13;5090025;28;20003;-54
2022/06/13 06:18:22;;;;;;;;;;;;;;;-146.27;100.00;64033.13;5090275;28;19912;-53
2022/06/13 06:20:47;;;;;;;;;;;;;;;-146.27;100.00;64033.13;5095316;28;20014;-53
2022/06/13 06:23:12;;;;;;;;;;;;;;;-146.27;100.00;64033.13;5109905;28;20011;-52
2022/06/13 06:25:38;;;;;;;;;;;;;;;-146.27;100.00;64033.13;5110245;28;20106;-52
2022/06/13 06:28:04;;;;;;;;;;;;;;;-146.27;100.00;64033.13;5110135;28;19918;-51
2022/06/13 06:30:29;;;;;;;;;;;;;;;-146.27;100.00;64033.13;5110779;28;19919;-52
2022/06/13 06:32:55;;;;;;;;;;;;;;;-146.27;100.00;64033.13;5109975;28;19942;-52
2022/06/13 06:35:21;;;;;;;;;;;;;;;-146.27;100.00;64033.13;5110398;28;20367;-51
2022/06/13 06:37:48;;;;;;;;;;;;;;;-146.27;100.00;64033.13;5109651;28;19946;-51
2022/06/13 06:40:14;;;;;;;;;;;;;;;-146.27;100.00;64033.13;5110101;28;20375;-52
2022/06/13 06:42:40;;;;;;;;;;;;;;;-146.27;100.00;64033.13;5109773;28;20025;-53
2022/06/13 06:45:05;;;;;;;;;;;;;;;-146.27;100.00;64033.13;5109889;28;20017;-52
2022/06/13 06:47:31;;;;;;;;;;;;;;;-146.27;100.00;64033.13;5109467;28;19912;-51
2022/06/13 06:49:56;;;;;;;;;;;;;;;-146.27;100.00;64033.13;5110034;28;19915;-52
2022/06/13 06:52:21;;;;;;;;;;;;;;;-146.27;100.00;64033.13;5109015;28;19912;-52
2022/06/13 07:00:15;;;;;;;;;;;;;;;-146.27;100.00;64033.13;5109379;28;19919;-52
2022/06/13 07:02:40;;;;;;;;;;;;;;;-146.27;100.00;64033.13;5109450;28;19912;-52
2022/06/13 07:05:07;;;;;;;;;;;;;;;-146.27;100.00;64033.13;5108460;28;19918;-52
2022/06/13 07:07:32;;;;;;;;;;;;;;;-146.27;100.00;64033.13;5090551;28;20307;-50
2022/06/13 07:09:58;;;;;;;;;;;;;;;-146.27;100.00;64033.13;5099414;28;20406;-52
2022/06/13 07:12:23;;;;;;;;;;;;;;;-146.27;100.00;64033.13;5109294;28;19912;-52
2022/06/13 07:14:48;;;;;;;;;;;;;;;-146.27;100.00;64033.13;5096622;28;19912;-50
2022/06/13 07:17:14;;;;;;;;;;;;;;;-146.27;100.00;64033.13;5104780;28;20425;-53
2022/06/13 07:19:39;;;;;;;;;;;;;;;-146.27;100.00;64033.13;5092045;28;20957;-52
2022/06/13 07:22:06;;;;;;;;;;;;;;;-146.27;100.00;64033.13;5098829;28;19911;-52
2022/06/13 07:24:31;;;;;;;;;;;;;;;-146.27;100.00;64033.13;5099315;28;19919;-53
2022/06/13 07:26:57;;;;;;;;;;;;;;;-146.27;100.00;64033.13;5102259;28;19912;-52
2022/06/13 07:29:22;;;;;;;;;;;;;;;-146.27;100.00;64033.13;5092251;28;19938;-52
2022/06/13 07:31:49;;;;;;;;;;;;;;;-146.27;100.00;64033.13;5105174;28;20429;-52
2022/06/13 07:34:16;;;;;;;;;;;;;;;-146.27;100.00;64033.13;5096400;28;19935;-50
2022/06/13 07:36:42;;;;;;;;;;;;;;;-146.27;100.00;64033.13;5097423;28;19917;-52
2022/06/13 07:39:07;;;;;;;;;;;;;;;-146.27;100.00;64033.13;5103701;28;19918;-53
2022/06/13 07:41:33;;;;;;;;;;;;;;;-146.27;100.00;64033.13;5091827;28;19912;-52
2022/06/13 07:43:58;;;;;;;;;;;;;;;-146.27;100.00;64033.13;5102919;28;20303;-52
2022/06/13 07:46:25;;;;;;;;;;;;;;;-146.27;100.00;64033.13;5095418;28;19959;-50
2022/06/13 07:48:50;;;;;;;;;;;;;;;-146.27;100.00;64033.13;5095672;28;19916;-51
2022/06/13 07:51:16;;;;;;;;;;;;;;;-146.27;100.00;64033.13;5104155;28;19949;-52
2022/06/13 07:53:41;;;;;;;;;;;;;;;-146.27;100.00;64033.13;5093568;28;19918;-52
2022/06/13 07:56:07;;;;;;;;;;;;;;;-146.27;100.00;64033.13;5101716;28;20007;-51
2022/06/13 07:58:34;;;;;;;;;;;;;;;-146.27;100.00;64033.13;5093248;28;19941;-38
2022/06/13 08:01:00;;;;;;;;;;;;;;;-146.27;100.00;64033.13;5093142;28;19912;-37
2022/06/13 08:03:28;;;;;;;;;;;;;;;-146.27;100.00;64033.13;5093407;28;19919;-37
2022/06/13 08:05:53;;;;;;;;;;;;;;;-146.27;100.00;64033.13;5092851;28;19919;-37
2022/06/13 08:08:19;;;;;;;;;;;;;;;-146.27;100.00;64033.13;5092860;28;19916;-37
2022/06/13 08:10:45;;;;;;;;;;;;;;;-146.27;100.00;64033.13;5092933;28;19919;-38
2022/06/13 08:13:12;;;;;;;;;;;;;;;-146.27;100.00;64033.13;5092318;28;20283;-38
2022/06/13 08:15:38;;;;;;;;;;;;;;;-146.27;100.00;64033.13;5092405;28;19912;-38
2022/06/13 08:18:03;;;;;;;;;;;;;;;-146.27;100.00;64033.13;5092097;28;19916;-38
2022/06/13 08:20:29;;;;;;;;;;;;;;;-146.27;100.00;64033.13;5094791;28;19922;-38
2022/06/13 08:22:58;;;;;;;;;;;;;;;-146.27;100.00;64033.13;5112311;28;19947;-38
2022/06/13 08:25:26;;;;;;;;;;;;;;;-146.27;100.00;64033.13;5112325;28;19931;-38
2022/06/13 08:27:52;;;;;;;;;;;;;;;-146.27;100.00;64033.13;5112389;28;19916;-38
2022/06/13 08:30:17;;;;;;;;;;;;;;;-146.27;100.00;64033.13;5112627;28;19999;-38
2022/06/13 08:32:43;;;;;;;;;;;;;;;-146.27;100.00;64033.13;5112947;28;19958;-39
2022/06/13 08:35:08;;;;;;;;;;;;;;;-146.27;100.00;64033.13;5112174;28;19916;-37
2022/06/13 08:37:34;;;;;;;;;;;;;;;-146.27;100.00;64033.13;5112010;28;19916;-37
2022/06/13 08:39:59;;;;;;;;;;;;;;;-146.27;100.00;64033.13;5112022;28;19919;-37
2022/06/13 08:42:28;;;;;;;;;;;;;;;-146.27;100.00;64033.13;5112198;28;19921;-37
2022/06/13 08:45:02;;;;;;;;;;;;;;;-146.27;100.00;64033.13;5111917;28;19911;-37
2022/06/13 08:47:43;;;;;;;;;;;;;;;-146.27;100.00;64033.13;5111627;28;19932;-38
2022/06/13 08:50:15;;;;;;;;;;;;;;;-146.27;100.00;64033.13;5111468;28;19912;-38
2022/06/13 08:52:43;;;;;;;;;;;;;;;-146.27;100.00;64033.13;5108414;28;20145;-38
2022/06/13 08:55:24;;;;;;;;;;;;;;;-146.27;100.00;64033.13;5110421;28;19919;-38
2022/06/13 08:57:55;;;;;;;;;;;;;;;-146.27;100.00;64033.13;5109970;28;19916;-37
2022/06/13 09:00:22;;;;;;;;;;;;;;;-146.27;100.00;64033.13;5110191;28;19915;-38
2022/06/13 09:03:10;;;;;;;;;;;;;;;-146.27;100.00;64033.13;5110214;28;19922;-38
2022/06/13 09:05:35;;;;;;;;;;;;;;;-146.27;100.00;64033.13;5104784;28;19938;-38
2022/06/13 09:08:12;;;;;;;;;;;;;;;-146.27;100.00;64033.13;5090845;28;19912;-37
2022/06/13 09:10:46;;;;;;;;;;;;;;;-146.27;100.00;64033.13;5091317;28;19923;-37
2022/06/13 09:13:17;;;;;;;;;;;;;;;-146.27;100.00;64033.13;5091259;28;19912;-37
2022/06/13 09:16:03;;;;;;;;;;;;;;;-146.27;100.00;64033.13;5091245;28;19912;-37
2022/06/13 09:18:45;;;;;;;;;;;;;;;-146.27;100.00;64033.13;5090290;28;19916;-37
2022/06/13 09:21:11;;;;;;;;;;;;;;;-146.27;100.00;64033.13;5091142;28;19997;-37
2022/06/13 09:23:56;;;;;;;;;;;;;;;-146.27;100.00;64033.13;5090426;28;20383;-37
2022/06/13 09:26:24;;;;;;;;;;;;;;;-146.27;100.00;64033.13;5090107;28;19912;-38
2022/06/13 09:28:55;;;;;;;;;;;;;;;-146.27;100.00;64033.13;5090833;28;20041;-37
2022/06/13 09:31:30;;;;;;;;;;;;;;;-146.27;100.00;64033.13;5090333;28;19934;-37
2022/06/13 09:34:01;;;;;;;;;;;;;;;-146.27;100.00;64033.13;5090730;28;19970;-38
2022/06/13 09:36:34;;;;;;;;;;;;;;;-146.27;100.00;64033.13;5090597;28;20369;-38
2022/06/13 09:39:03;;;;;;;;;;;;;;;-146.27;100.00;64033.13;5090490;28;20002;-38
2022/06/13 09:41:34;;;;;;;;;;;;;;;-146.27;100.00;64033.13;5090870;28;19958;-38
2022/06/13 09:44:07;;;;;;;;;;;;;;;-146.27;100.00;64033.13;5090856;28;19935;-38
2022/06/13 09:47:05;;;;;;;;;;;;;;;-146.27;100.00;64033.13;5091183;28;20358;-37
2022/06/13 09:49:38;;;;;;;;;;;;;;;-146.27;100.00;64033.13;5066957;28;19918;-38
2022/06/13 09:52:06;;;;;;;;;;;;;;;-146.27;100.00;64033.13;5090755;28;19969;-39
2022/06/13 09:54:34;;;;;;;;;;;;;;;-146.27;100.00;64033.13;5090816;28;19954;-37
2022/06/13 09:57:12;;;;;;;;;;;;;;;-146.27;100.00;64033.13;5090748;28;20014;-38
2022/06/13 09:59:49;;;;;;;;;;;;;;;-146.27;100.00;64033.13;5090324;28;19973;-38
2022/06/13 10:02:24;;;;;;;;;;;;;;;-146.27;100.00;64033.13;5090368;28;19912;-38
2022/06/13 10:04:50;;;;;;;;;;;;;;;-146.27;100.00;64033.13;5090136;28;20384;-37
2022/06/13 10:07:23;;;;;;;;;;;;;;;-146.27;100.00;64033.13;5090246;28;19970;-38
2022/06/13 10:09:52;;;;;;;;;;;;;;;-146.27;100.00;64033.13;5090734;28;20397;-37
2022/06/13 10:12:26;;;;;;;;;;;;;;;-146.27;100.00;64033.13;5090181;28;20348;-38
2022/06/13 10:15:03;;;;;;;;;;;;;;;-146.27;100.00;64033.13;5090356;28;20462;-38
2022/06/13 10:17:31;;;;;;;;;;;;;;;-146.27;100.00;64033.13;5089824;28;19916;-37
2022/06/13 10:19:57;;;;;;;;;;;;;;;-146.27;100.00;64033.13;5090001;28;19916;-39
2022/06/13 10:22:28;;;;;;;;;;;;;;;-146.27;100.00;64033.13;5108907;28;20417;-38
2022/06/13 10:24:53;;;;;;;;;;;;;;;-146.27;100.00;64033.13;5109874;28;19912;-38
2022/06/13 10:27:22;;;;;;;;;;;;;;;-146.27;100.00;64033.13;5109985;28;19912;-38
2022/06/13 10:29:47;;;;;;;;;;;;;;;-146.27;100.00;64033.13;5109662;28;20023;-38
2022/06/13 10:32:19;;;;;;;;;;;;;;;-146.27;100.00;64033.13;5095017;28;20382;-38
2022/06/13 10:34:59;;;;;;;;;;;;;;;-146.27;100.00;64033.13;5089952;28;19912;-38
2022/06/13 10:37:31;;;;;;;;;;;;;;;-146.27;100.00;64033.13;5088722;28;19916;-38
2022/06/13 10:40:00;;;;;;;;;;;;;;;-146.27;100.00;64033.13;5090596;28;19912;-37
2022/06/13 10:42:27;;;;;;;;;;;;;;;-146.27;100.00;64033.13;5090099;28;20025;-38
2022/06/13 10:44:53;;;;;;;;;;;;;;;-146.27;100.00;64033.13;5089885;28;20019;-38
2022/06/13 10:47:39;;;;;;;;;;;;;;;-146.27;100.00;64033.13;5089647;28;19912;-39
2022/06/13 10:50:14;;;;;;;;;;;;;;;-146.27;100.00;64033.13;5089171;28;19919;-39
2022/06/13 10:52:43;;;;;;;;;;;;;;;-146.27;100.00;64033.13;5089199;28;19920;-37
2022/06/13 10:55:10;;;;;;;;;;;;;;;-146.27;100.00;64033.13;5089884;28;19912;-38
2022/06/13 10:57:40;;;;;;;;;;;;;;;-146.27;100.00;64033.13;5089577;28;19920;-38
2022/06/13 11:00:14;;;;;;;;;;;;;;;-146.27;100.00;64033.13;5089365;28;19981;-39
2022/06/13 11:02:39;;;;;;;;;;;;;;;-146.27;100.00;64033.13;5089386;28;19912;-38
2022/06/13 11:05:14;;;;;;;;;;;;;;;-146.27;100.00;64033.13;5088605;28;19941;-38
2022/06/13 11:07:45;;;;;;;;;;;;;;;-146.27;100.00;64033.13;5089666;28;19970;-38
2022/06/13 11:10:28;;;;;;;;;;;;;;;-146.27;100.00;64033.13;5089298;28;19912;-38
2022/06/13 11:12:54;;;;;;;;;;;;;;;-146.27;100.00;64033.13;5089176;28;20441;-38
2022/06/13 11:24:01;;;;;;;;;;;;;;;-146.27;100.00;64033.13;5089532;28;19919;-38
2022/06/13 11:29:20;;;;;;;;;;;;;;;-146.27;100.00;64033.13;5093247;28;19919;-37
2022/06/13 11:31:50;;;;;;;;;;;;;;;-146.27;100.00;64033.13;5093293;28;19912;-38
2022/06/13 11:34:42;;;;;;;;;;;;;;;-146.27;100.00;64033.13;5093031;28;19925;-38
2022/06/13 11:37:13;;;;;;;;;;;;;;;-146.27;100.00;64033.13;5092256;28;19920;-38
2022/06/13 11:39:40;;;;;;;;;;;;;;;-146.27;100.00;64033.13;5093035;28;19912;-38
2022/06/13 11:42:18;;;;;;;;;;;;;;;-146.27;100.00;64033.13;5093011;28;19995;-38
2022/06/13 11:44:47;;;;;;;;;;;;;;;-146.27;100.00;64033.13;5093656;28;19913;-37
2022/06/13 11:47:13;;;;;;;;;;;;;;;-146.27;100.00;64033.13;5093139;28;19920;-38
2022/06/13 11:49:41;;;;;;;;;;;;;;;-146.27;100.00;64033.13;5093373;28;20372;-36
2022/06/13 11:52:09;;;;;;;;;;;;;;;-146.27;100.00;64033.13;5093048;28;19919;-38
2022/06/13 11:54:46;;;;;;;;;;;;;;;-146.27;100.00;64033.13;5092983;28;20387;-38
2022/06/13 11:57:14;;;;;;;;;;;;;;;-146.27;100.00;64033.13;5093084;28;20021;-39
2022/06/13 11:59:55;;;;;;;;;;;;;;;-146.27;100.00;64033.13;5092824;28;19989;-38
2022/06/13 12:02:23;;;;;;;;;;;;;;;-146.27;100.00;64033.13;5092943;28;19912;-38
2022/06/13 12:04:48;;;;;;;;;;;;;;;-146.27;100.00;64033.13;5092402;28;19916;-38
2022/06/13 12:07:24;;;;;;;;;;;;;;;-146.27;100.00;64033.13;5093233;28;19912;-39
2022/06/13 12:09:54;;;;;;;;;;;;;;;-146.27;100.00;64033.13;5092433;28;20259;-38
2022/06/13 12:12:20;;;;;;;;;;;;;;;-146.27;100.00;64033.13;5091891;28;20344;-38
2022/06/13 12:14:45;;;;;;;;;;;;;;;-146.27;100.00;64033.13;5092616;28;19995;-38
2022/06/13 12:17:18;;;;;;;;;;;;;;;-146.27;100.00;64033.13;5091969;28;20014;-37
2022/06/13 12:20:03;;;;;;;;;;;;;;;-146.27;100.00;64033.13;5092009;28;19978;-37
2022/06/13 12:22:34;;;;;;;;;;;;;;;-146.27;100.00;64033.13;5092216;28;19970;-37
2022/06/13 12:25:05;;;;;;;;;;;;;;;-146.27;100.00;64033.13;5091785;28;19913;-37
2022/06/13 12:27:30;;;;;;;;;;;;;;;-146.27;100.00;64033.13;5091527;28;19912;-38
2022/06/13 12:29:56;;;;;;;;;;;;;;;-146.27;100.00;64033.13;5091779;28;20303;-38
2022/06/13 12:32:42;;;;;;;;;;;;;;;-146.27;100.00;64033.13;5091481;28;19916;-38
2022/06/13 12:35:31;;;;;;;;;;;;;;;-146.27;100.00;64033.13;5092391;28;19924;-39
2022/06/13 12:38:11;;;;;;;;;;;;;;;-146.27;100.00;64033.13;5092420;28;20007;-36
2022/06/13 12:40:55;;;;;;;;;;;;;;;-146.27;100.00;64033.13;5091440;28;19912;-37
2022/06/13 12:43:20;;;;;;;;;;;;;;;-146.27;100.00;64033.13;5092310;28;19912;-37
2022/06/13 12:45:57;;;;;;;;;;;;;;;-146.27;100.00;64033.13;5092496;28;20292;-37
2022/06/13 12:48:41;;;;;;;;;;;;;;;-146.27;100.00;64033.13;5092255;28;19920;-38
2022/06/13 12:51:12;;;;;;;;;;;;;;;-146.27;100.00;64033.13;5092332;28;19935;-38
2022/06/13 12:53:54;;;;;;;;;;;;;;;-146.27;100.00;64033.13;5092306;28;19912;-38